Time;durP1;ratioP1;P1;durP2;ratioP2;P2;SDS_P1;SDS_P2;PMS_P1;PMS_P2;Temp;Humidity;BMP_temperature;BMP_pressure;BME280_temperature;BME280_humidity;BME280_pressure;Samples;Min_cycle;Max_cycle;Signal;HPM_P1;HPM_P2
2022/07/17 00:00:04;;;;;;;7.93;1.95;;;18.30;97.90;;;;;;5081393;28;20032;-72
2022/07/17 00:02:30;;;;;;;5.78;1.70;;;18.20;98.10;;;;;;5091674;28;20024;-72
2022/07/17 00:04:55;;;;;;;10.35;1.70;;;18.20;97.50;;;;;;5080962;28;20465;-72
2022/07/17 00:07:21;;;;;;;4.30;2.00;;;18.20;97.10;;;;;;5086122;28;20473;-72
2022/07/17 00:09:47;;;;;;;7.35;1.70;;;18.20;96.60;;;;;;5084568;28;20154;-72
2022/07/17 00:12:12;;;;;;;6.35;1.70;;;18.10;97.00;;;;;;5087036;28;20377;-72
2022/07/17 00:14:38;;;;;;;4.25;1.80;;;18.10;97.20;;;;;;5085300;28;20103;-72
2022/07/17 00:17:05;;;;;;;5.18;1.65;;;18.10;96.60;;;;;;5084341;28;20428;-72
2022/07/17 00:19:31;;;;;;;5.65;1.95;;;18.10;96.40;;;;;;5092053;28;20095;-72
2022/07/17 00:21:57;;;;;;;5.18;1.45;;;18.10;97.00;;;;;;5087995;28;20495;-72
2022/07/17 00:24:23;;;;;;;4.82;1.77;;;18.00;97.20;;;;;;5087346;28;20024;-73
2022/07/17 00:26:51;;;;;;;2.85;1.77;;;18.00;96.80;;;;;;5081421;28;20107;-73
2022/07/17 00:29:18;;;;;;;3.95;2.05;;;18.00;97.00;;;;;;5092134;28;20020;-72
2022/07/17 00:31:44;;;;;;;3.97;1.85;;;18.00;97.20;;;;;;5084718;28;20024;-71
2022/07/17 00:34:09;;;;;;;5.18;1.50;;;18.00;97.40;;;;;;5085777;28;20035;-72
2022/07/17 00:36:35;;;;;;;8.68;1.98;;;17.90;97.00;;;;;;5082017;28;20024;-72
2022/07/17 00:39:01;;;;;;;5.50;1.65;;;17.80;97.90;;;;;;5092815;28;20024;-72
2022/07/17 00:41:27;;;;;;;7.43;2.17;;;17.70;97.80;;;;;;5087835;28;20036;-72
2022/07/17 00:43:52;;;;;;;4.07;1.92;;;17.70;97.40;;;;;;5083225;28;20024;-72
2022/07/17 00:46:18;;;;;;;7.78;1.88;;;17.60;97.70;;;;;;5084416;28;20024;-72
2022/07/17 00:48:44;;;;;;;6.43;1.92;;;17.60;97.70;;;;;;5088084;28;20028;-72
2022/07/17 00:51:09;;;;;;;5.68;2.20;;;17.60;97.60;;;;;;5086678;28;20016;-72
2022/07/17 00:53:36;;;;;;;7.47;2.30;;;17.60;98.30;;;;;;5085761;28;20484;-72
2022/07/17 00:56:04;;;;;;;7.93;1.85;;;17.50;99.20;;;;;;5083489;28;20184;-72
2022/07/17 00:58:33;;;;;;;4.15;1.45;;;17.40;98.80;;;;;;5078743;28;20022;-72
2022/07/17 01:00:59;;;;;;;4.65;1.48;;;17.30;99.40;;;;;;5086723;28;20141;-72
2022/07/17 01:03:25;;;;;;;5.28;1.90;;;17.10;99.40;;;;;;5085880;28;20042;-73
2022/07/17 01:05:51;;;;;;;3.83;1.85;;;17.10;99.60;;;;;;5081000;28;20473;-72
2022/07/17 01:08:17;;;;;;;4.82;1.90;;;17.20;98.70;;;;;;5085475;28;20558;-72
2022/07/17 01:10:43;;;;;;;5.70;2.33;;;17.20;98.70;;;;;;5081836;28;20079;-72
2022/07/17 01:13:09;;;;;;;4.32;1.98;;;17.30;98.30;;;;;;5087460;28;20023;-72
2022/07/17 01:15:39;;;;;;;6.30;1.80;;;17.30;98.00;;;;;;5082969;28;20028;-72
2022/07/17 01:18:07;;;;;;;8.27;2.50;;;17.20;98.00;;;;;;5084781;28;20024;-72
2022/07/17 01:20:33;;;;;;;4.95;2.45;;;17.30;98.20;;;;;;5086185;28;20081;-72
2022/07/17 01:22:59;;;;;;;6.85;2.45;;;17.20;98.80;;;;;;5089469;28;20023;-73
2022/07/17 01:25:25;;;;;;;6.60;2.22;;;17.10;99.40;;;;;;5083252;28;20024;-72
2022/07/17 01:27:51;;;;;;;4.20;1.90;;;16.90;99.90;;;;;;5073960;28;20025;-72
2022/07/17 01:30:17;;;;;;;4.85;2.30;;;16.90;99.50;;;;;;5085863;28;20024;-72
2022/07/17 01:32:43;;;;;;;2.50;2.22;;;16.90;99.30;;;;;;5084876;28;20441;-72
2022/07/17 01:35:11;;;;;;;6.50;2.15;;;17.00;98.80;;;;;;5081609;28;20381;-72
2022/07/17 01:37:38;;;;;;;5.95;2.63;;;17.00;98.50;;;;;;5077655;27;20096;-72
2022/07/17 01:40:04;;;;;;;7.93;2.65;;;16.90;98.20;;;;;;5078295;28;20078;-71
2022/07/17 01:42:31;;;;;;;4.95;2.47;;;16.90;98.60;;;;;;5089509;28;20404;-72
2022/07/17 01:44:57;;;;;;;6.05;2.15;;;16.80;99.00;;;;;;5083131;28;20528;-72
2022/07/17 01:47:23;;;;;;;4.63;1.88;;;16.70;99.90;;;;;;5082060;28;20056;-72
2022/07/17 01:49:55;;;;;;;5.28;1.92;;;16.60;99.90;;;;;;5082322;28;20384;-72
2022/07/17 01:52:22;;;;;;;7.18;1.80;;;16.50;99.90;;;;;;5090390;28;20042;-74
2022/07/17 01:54:48;;;;;;;4.45;2.17;;;16.50;99.90;;;;;;5081297;28;20032;-72
2022/07/17 01:57:14;;;;;;;4.05;2.20;;;16.40;99.90;;;;;;5084256;28;20032;-71
2022/07/17 01:59:40;;;;;;;4.93;2.13;;;16.50;98.10;;;;;;5076267;28;20086;-72
2022/07/17 02:02:07;;;;;;;3.92;1.88;;;16.50;99.10;;;;;;5086604;28;20035;-72
2022/07/17 02:04:34;;;;;;;4.00;2.00;;;16.40;99.90;;;;;;5085672;28;20026;-72
2022/07/17 02:07:00;;;;;;;3.20;2.28;;;16.50;99.80;;;;;;5086223;28;20044;-72
2022/07/17 02:09:26;;;;;;;4.68;2.22;;;16.50;99.40;;;;;;5079870;28;20090;-72
2022/07/17 02:11:52;;;;;;;6.28;2.03;;;16.40;99.90;;;;;;5082661;28;20052;-72
2022/07/17 02:14:18;;;;;;;4.18;2.28;;;16.40;99.90;;;;;;5091562;28;20557;-72
2022/07/17 02:16:43;;;;;;;4.30;1.60;;;16.30;99.90;;;;;;5085411;28;20020;-72
2022/07/17 02:19:09;;;;;;;3.97;2.30;;;16.30;99.90;;;;;;5081721;28;20086;-72
2022/07/17 02:21:35;;;;;;;7.10;2.30;;;16.20;99.90;;;;;;5083854;28;20511;-70
2022/07/17 02:24:01;;;;;;;6.35;2.25;;;16.20;99.90;;;;;;5078203;28;20465;-72
2022/07/17 02:26:26;;;;;;;6.10;2.30;;;16.10;99.90;;;;;;5081888;28;20040;-72
2022/07/17 02:28:52;;;;;;;8.30;2.40;;;16.20;99.90;;;;;;5074666;28;20055;-72
2022/07/17 02:31:17;;;;;;;4.32;2.28;;;16.20;99.90;;;;;;5078973;28;20362;-71
2022/07/17 02:33:43;;;;;;;6.57;2.40;;;16.20;99.90;;;;;;5085708;28;20046;-72
2022/07/17 02:36:09;;;;;;;4.78;2.33;;;16.30;99.50;;;;;;5081288;28;20035;-71
2022/07/17 02:38:34;;;;;;;3.45;2.40;;;16.30;99.30;;;;;;5078854;28;20457;-71
2022/07/17 02:41:00;;;;;;;3.50;2.20;;;16.30;99.50;;;;;;5078593;28;20025;-72
2022/07/17 02:43:26;;;;;;;2.85;2.65;;;16.20;99.20;;;;;;5082796;28;20016;-74
2022/07/17 02:45:51;;;;;;;4.88;2.70;;;16.20;99.20;;;;;;5083867;28;20017;-72
2022/07/17 02:48:17;;;;;;;6.07;2.40;;;16.20;99.70;;;;;;5081276;28;20477;-71
2022/07/17 02:50:42;;;;;;;4.63;2.80;;;16.20;99.50;;;;;;5089513;28;20020;-73
2022/07/17 02:53:08;;;;;;;5.35;2.78;;;16.10;99.60;;;;;;5086904;28;20037;-73
2022/07/17 02:55:34;;;;;;;5.70;2.90;;;16.00;99.50;;;;;;5088106;28;20036;-71
2022/07/17 02:57:59;;;;;;;6.60;2.72;;;16.00;99.60;;;;;;5078135;28;20381;-73
2022/07/17 03:00:26;;;;;;;5.45;2.92;;;16.00;99.90;;;;;;5077067;28;20473;-73
2022/07/17 03:02:52;;;;;;;6.85;3.03;;;16.00;99.90;;;;;;5082933;28;20407;-73
2022/07/17 03:05:18;;;;;;;3.70;2.55;;;15.80;99.90;;;;;;5088589;28;20020;-73
2022/07/17 03:07:44;;;;;;;5.22;2.95;;;15.80;99.80;;;;;;5081425;28;20032;-72
2022/07/17 03:10:10;;;;;;;3.85;3.00;;;15.80;99.80;;;;;;5075461;28;20760;-72
2022/07/17 03:12:36;;;;;;;3.53;2.63;;;15.90;99.90;;;;;;5092051;28;20508;-73
2022/07/17 03:15:03;;;;;;;7.63;3.00;;;15.80;99.60;;;;;;5079470;28;20016;-73
2022/07/17 03:17:29;;;;;;;8.95;2.70;;;15.70;99.80;;;;;;5085893;28;20035;-73
2022/07/17 03:19:55;;;;;;;3.95;2.85;;;15.70;99.90;;;;;;5081935;28;20033;-73
2022/07/17 03:22:20;;;;;;;5.00;2.75;;;15.70;99.90;;;;;;5088740;28;20052;-73
2022/07/17 03:24:46;;;;;;;6.78;3.15;;;15.70;99.90;;;;;;5084187;28;20536;-71
2022/07/17 03:27:11;;;;;;;7.15;2.70;;;15.60;99.90;;;;;;5081080;28;20033;-72
2022/07/17 03:29:37;;;;;;;5.45;2.88;;;15.50;99.90;;;;;;5086183;28;20024;-73
2022/07/17 03:32:03;;;;;;;3.92;2.53;;;15.50;99.90;;;;;;5085584;28;20024;-73
2022/07/17 03:34:29;;;;;;;4.55;2.45;;;15.40;99.90;;;;;;5082572;28;20108;-72
2022/07/17 03:36:54;;;;;;;7.47;3.08;;;15.50;99.90;;;;;;5078407;28;20050;-72
2022/07/17 03:39:20;;;;;;;5.22;3.08;;;15.50;99.90;;;;;;5086988;28;20432;-72
2022/07/17 03:41:45;;;;;;;4.35;2.50;;;15.40;99.90;;;;;;5084373;28;20040;-72
2022/07/17 03:44:11;;;;;;;5.93;2.83;;;15.30;99.90;;;;;;5079230;28;20012;-72
2022/07/17 03:46:36;;;;;;;7.20;2.90;;;15.30;99.90;;;;;;5084016;28;20038;-72
2022/07/17 03:49:02;;;;;;;4.00;2.80;;;15.20;99.90;;;;;;5087084;28;20013;-72
2022/07/17 03:51:28;;;;;;;6.03;2.90;;;15.20;99.90;;;;;;5084233;28;20035;-73
2022/07/17 03:53:54;;;;;;;4.78;2.85;;;15.30;99.90;;;;;;5087635;28;20043;-71
2022/07/17 03:56:19;;;;;;;9.50;3.15;;;15.30;99.90;;;;;;5082361;28;20397;-72
2022/07/17 03:58:45;;;;;;;6.93;2.70;;;15.20;99.90;;;;;;5077933;28;20047;-72
2022/07/17 04:01:11;;;;;;;4.75;2.70;;;15.00;99.90;;;;;;5089007;28;20077;-72
2022/07/17 04:03:36;;;;;;;4.18;2.63;;;15.00;99.90;;;;;;5087482;28;20465;-72
2022/07/17 04:06:02;;;;;;;5.38;2.38;;;15.10;99.90;;;;;;5082025;28;20522;-72
2022/07/17 04:08:29;;;;;;;6.38;2.80;;;15.10;99.90;;;;;;5085163;28;20024;-71
2022/07/17 04:10:55;;;;;;;4.50;2.65;;;15.00;99.90;;;;;;5083421;28;20028;-72
2022/07/17 04:13:21;;;;;;;5.82;2.90;;;15.00;99.90;;;;;;5088507;28;20443;-72
2022/07/17 04:15:49;;;;;;;3.30;2.30;;;15.00;99.90;;;;;;5081978;28;20028;-72
2022/07/17 04:18:17;;;;;;;4.15;2.97;;;15.00;99.90;;;;;;5084618;28;20024;-71
2022/07/17 04:20:43;;;;;;;7.07;3.30;;;14.90;99.90;;;;;;5087392;28;20038;-72
2022/07/17 04:23:09;;;;;;;3.53;3.20;;;15.00;99.90;;;;;;5090084;28;20114;-72
2022/07/17 04:25:34;;;;;;;5.55;3.78;;;15.10;99.90;;;;;;5084303;28;20056;-71
2022/07/17 04:28:00;;;;;;;4.82;2.78;;;15.10;99.90;;;;;;5083170;28;20059;-72
2022/07/17 04:30:26;;;;;;;5.25;3.13;;;15.10;99.90;;;;;;5086547;28;20028;-73
2022/07/17 04:32:52;;;;;;;4.93;3.20;;;15.10;99.90;;;;;;5089894;28;20032;-73
2022/07/17 04:35:18;;;;;;;6.80;3.20;;;15.10;99.90;;;;;;5083370;28;20020;-73
2022/07/17 04:37:44;;;;;;;5.65;2.97;;;15.10;99.90;;;;;;5087842;28;20366;-73
2022/07/17 04:40:11;;;;;;;6.00;2.70;;;15.10;99.90;;;;;;5077562;28;20035;-72
2022/07/17 04:42:37;;;;;;;7.32;3.40;;;15.00;99.90;;;;;;5085059;28;20469;-72
2022/07/17 04:45:03;;;;;;;6.10;3.45;;;15.00;99.90;;;;;;5087165;28;20074;-73
2022/07/17 04:47:29;;;;;;;4.60;3.15;;;14.90;99.90;;;;;;5079390;28;20024;-71
2022/07/17 04:49:54;;;;;;;9.75;2.97;;;15.00;99.90;;;;;;5087319;28;20024;-72
2022/07/17 04:52:20;;;;;;;3.80;2.97;;;15.00;99.90;;;;;;5092410;28;20024;-72
2022/07/17 04:54:46;;;;;;;4.63;3.22;;;15.00;99.90;;;;;;5084064;28;20032;-72
2022/07/17 04:57:11;;;;;;;5.72;3.63;;;15.00;99.90;;;;;;5089097;28;20024;-73
2022/07/17 04:59:37;;;;;;;4.90;3.63;;;15.10;99.90;;;;;;5080837;28;20082;-72
2022/07/17 05:02:03;;;;;;;6.07;3.85;;;15.10;99.90;;;;;;5083244;28;20089;-72
2022/07/17 05:04:29;;;;;;;4.50;3.53;;;15.20;99.90;;;;;;5118946;27;20370;-73
2022/07/17 05:06:55;;;;;;;7.28;3.70;;;15.20;99.90;;;;;;5083203;28;20046;-72
2022/07/17 05:09:21;;;;;;;6.53;3.45;;;15.20;99.90;;;;;;5082242;28;20449;-72
2022/07/17 05:11:47;;;;;;;10.85;4.13;;;15.20;99.90;;;;;;5076984;28;20035;-73
2022/07/17 05:14:13;;;;;;;6.20;4.40;;;15.20;99.90;;;;;;5086143;28;20035;-73
2022/07/17 05:16:39;;;;;;;6.72;3.78;;;15.20;99.90;;;;;;5088514;28;20028;-69
2022/07/17 05:19:05;;;;;;;5.57;4.05;;;15.20;99.90;;;;;;5079154;28;20091;-72
2022/07/17 05:21:30;;;;;;;5.90;3.88;;;15.30;99.90;;;;;;5093939;28;20559;-69
2022/07/17 05:23:56;;;;;;;8.60;3.83;;;15.30;99.90;;;;;;5085406;28;20095;-72
2022/07/17 05:26:22;;;;;;;8.63;5.57;;;15.30;99.90;;;;;;5085292;28;20032;-73
2022/07/17 05:28:47;;;;;;;9.30;5.40;;;15.30;99.90;;;;;;5087746;28;20103;-73
2022/07/17 05:31:13;;;;;;;7.90;4.45;;;15.40;99.90;;;;;;5088912;28;20058;-72
2022/07/17 05:33:39;;;;;;;8.35;4.72;;;15.40;99.90;;;;;;5086024;28;20461;-72
2022/07/17 05:36:04;;;;;;;10.40;4.50;;;15.40;99.90;;;;;;5078506;28;20021;-71
2022/07/17 05:38:30;;;;;;;8.85;4.47;;;15.40;99.90;;;;;;5089274;28;20031;-73
2022/07/17 05:40:56;;;;;;;8.43;4.43;;;15.40;99.90;;;;;;5081559;28;20115;-73
2022/07/17 05:43:21;;;;;;;7.63;3.65;;;15.40;99.90;;;;;;5081950;28;20046;-73
2022/07/17 05:45:47;;;;;;;7.28;4.40;;;15.40;99.90;;;;;;5089677;28;20028;-72
2022/07/17 05:48:13;;;;;;;6.25;4.18;;;15.50;99.90;;;;;;5082550;28;20012;-72
2022/07/17 05:50:38;;;;;;;7.95;4.50;;;15.60;99.90;;;;;;5080526;28;20381;-73
2022/07/17 05:53:04;;;;;;;9.32;4.30;;;15.60;99.90;;;;;;5086406;28;20469;-73
2022/07/17 05:55:29;;;;;;;9.65;4.60;;;15.60;99.90;;;;;;5086880;28;20491;-71
2022/07/17 05:57:55;;;;;;;6.82;4.53;;;15.60;99.90;;;;;;5080566;28;20031;-72
2022/07/17 06:00:21;;;;;;;9.90;4.78;;;15.70;99.90;;;;;;5078102;28;20177;-73
2022/07/17 06:02:46;;;;;;;6.85;4.80;;;15.70;99.90;;;;;;5080369;28;20451;-72
2022/07/17 06:05:12;;;;;;;8.10;4.95;;;15.70;99.90;;;;;;5083637;28;20044;-73
2022/07/17 06:07:38;;;;;;;8.75;6.10;;;15.80;99.90;;;;;;5086782;28;20036;-73
2022/07/17 06:10:07;;;;;;;13.32;5.75;;;15.80;99.90;;;;;;5082430;28;20028;-73
2022/07/17 06:12:32;;;;;;;8.15;5.45;;;15.80;99.90;;;;;;5091166;28;20027;-72
2022/07/17 06:14:58;;;;;;;9.98;5.72;;;15.80;99.90;;;;;;5081414;28;20401;-73
2022/07/17 06:17:24;;;;;;;10.65;5.00;;;15.90;99.90;;;;;;5085123;28;20033;-70
2022/07/17 06:19:52;;;;;;;9.30;4.40;;;15.80;99.90;;;;;;5078663;28;20020;-73
2022/07/17 06:22:20;;;;;;;13.43;5.95;;;15.90;99.90;;;;;;5085412;28;20024;-72
2022/07/17 06:24:47;;;;;;;9.43;6.20;;;16.00;99.90;;;;;;5086399;28;20028;-72
2022/07/17 06:27:13;;;;;;;7.93;4.82;;;16.00;99.90;;;;;;5084866;28;20024;-71
2022/07/17 06:29:40;;;;;;;15.75;6.20;;;16.00;99.90;;;;;;5085302;28;20020;-72
2022/07/17 06:32:06;;;;;;;13.48;5.95;;;16.00;99.90;;;;;;5082833;28;20021;-72
2022/07/17 06:34:31;;;;;;;13.68;5.93;;;16.00;99.90;;;;;;5084990;28;20027;-72
2022/07/17 06:36:57;;;;;;;9.35;5.18;;;16.10;99.90;;;;;;5080628;28;20021;-73
2022/07/17 06:39:23;;;;;;;10.32;5.72;;;16.20;99.90;;;;;;5084920;28;20386;-72
2022/07/17 06:41:48;;;;;;;8.38;6.03;;;16.20;99.90;;;;;;5078177;28;20041;-72
2022/07/17 06:44:14;;;;;;;11.60;5.97;;;16.30;99.90;;;;;;5087453;28;20028;-71
2022/07/17 06:46:40;;;;;;;11.95;6.45;;;16.40;99.90;;;;;;5090791;28;20465;-72
2022/07/17 06:49:05;;;;;;;9.50;5.80;;;16.50;99.90;;;;;;5081517;28;20032;-72
2022/07/17 06:51:31;;;;;;;10.95;5.55;;;16.60;99.90;;;;;;5091757;28;20028;-71
2022/07/17 06:53:57;;;;;;;9.80;6.00;;;16.70;99.90;;;;;;5084253;28;20492;-72
2022/07/17 06:56:22;;;;;;;11.15;5.97;;;16.80;99.90;;;;;;5083424;28;20028;-73
2022/07/17 06:58:48;;;;;;;11.95;5.22;;;17.00;99.90;;;;;;5081469;28;20024;-71
2022/07/17 07:01:13;;;;;;;11.10;5.28;;;17.10;99.90;;;;;;5081535;28;20036;-72
2022/07/17 07:03:39;;;;;;;7.88;4.70;;;17.10;99.90;;;;;;5080122;28;20075;-73
2022/07/17 07:06:05;;;;;;;11.68;5.07;;;17.30;99.90;;;;;;5077682;28;20389;-73
2022/07/17 07:08:30;;;;;;;11.77;5.47;;;17.40;99.90;;;;;;5088535;28;20024;-72
2022/07/17 07:10:56;;;;;;;11.90;4.90;;;17.70;99.90;;;;;;5080302;28;20036;-73
2022/07/17 07:13:22;;;;;;;10.20;5.15;;;17.90;99.90;;;;;;5085552;28;20020;-73
2022/07/17 07:15:47;;;;;;;12.95;5.03;;;18.20;99.90;;;;;;5078642;28;20076;-73
2022/07/17 07:18:13;;;;;;;9.52;4.22;;;18.20;99.90;;;;;;5087209;28;20020;-73
2022/07/17 07:20:39;;;;;;;37.95;5.78;;;18.30;99.90;;;;;;5084005;28;20036;-73
2022/07/17 07:23:04;;;;;;;12.95;4.68;;;18.40;99.90;;;;;;5083034;28;20078;-73
2022/07/17 07:25:30;;;;;;;10.85;3.95;;;18.50;99.90;;;;;;5082183;28;20035;-74
2022/07/17 07:27:56;;;;;;;9.73;3.72;;;18.70;99.90;;;;;;5087162;28;20111;-73
2022/07/17 07:30:22;;;;;;;9.13;3.80;;;18.80;99.90;;;;;;5082352;28;20077;-74
2022/07/17 07:32:47;;;;;;;10.23;4.03;;;19.00;99.90;;;;;;5090399;28;20093;-73
2022/07/17 07:35:13;;;;;;;8.88;3.40;;;19.10;99.90;;;;;;5085438;28;20115;-74
2022/07/17 07:37:39;;;;;;;11.85;3.95;;;19.30;99.90;;;;;;5087828;28;20101;-74
2022/07/17 07:40:06;;;;;;;7.43;3.00;;;19.30;99.90;;;;;;5091723;28;20607;-74
2022/07/17 07:42:32;;;;;;;8.02;3.78;;;19.40;99.90;;;;;;5085097;28;20483;-72
2022/07/17 07:44:58;;;;;;;9.05;3.28;;;19.50;99.90;;;;;;5086190;28;20029;-74
2022/07/17 07:47:24;;;;;;;7.32;3.15;;;19.70;99.90;;;;;;5089345;28;20491;-73
2022/07/17 07:49:50;;;;;;;8.32;3.17;;;19.80;99.90;;;;;;5086773;28;20027;-70
2022/07/17 07:52:16;;;;;;;6.88;3.28;;;19.90;99.90;;;;;;5084435;28;20032;-73
2022/07/17 07:54:42;;;;;;;9.00;3.22;;;20.00;99.90;;;;;;5090171;28;20029;-73
2022/07/17 07:57:07;;;;;;;12.00;3.10;;;20.10;99.90;;;;;;5087994;28;20072;-72
2022/07/17 07:59:33;;;;;;;9.50;3.15;;;20.20;99.90;;;;;;5086078;28;20432;-74
2022/07/17 08:02:01;;;;;;;5.03;2.67;;;20.30;99.90;;;;;;5085815;28;20048;-74
2022/07/17 08:04:27;;;;;;;9.90;2.65;;;20.40;99.90;;;;;;5093163;28;20028;-73
2022/07/17 08:06:53;;;;;;;9.25;3.20;;;20.60;99.90;;;;;;5084230;28;20031;-74
2022/07/17 08:09:19;;;;;;;3.10;2.10;;;20.70;99.90;;;;;;5087163;28;20021;-74
2022/07/17 08:11:44;;;;;;;6.97;2.53;;;20.80;99.90;;;;;;5084875;28;20036;-73
2022/07/17 08:14:10;;;;;;;8.88;2.85;;;21.10;99.90;;;;;;5082370;28;20028;-73
2022/07/17 08:16:35;;;;;;;6.55;2.83;;;21.10;99.50;;;;;;5083711;28;20032;-72
2022/07/17 08:19:02;;;;;;;7.28;2.42;;;21.20;99.90;;;;;;5081884;28;20066;-73
2022/07/17 08:21:28;;;;;;;4.68;1.52;;;21.30;98.70;;;;;;5087526;28;20097;-73
2022/07/17 08:23:54;;;;;;;4.97;2.00;;;21.50;99.10;;;;;;5085985;28;20470;-73
2022/07/17 08:26:20;;;;;;;5.75;1.77;;;21.70;98.50;;;;;;5088289;28;20027;-74
2022/07/17 08:28:46;;;;;;;6.47;1.90;;;21.90;96.60;;;;;;5084533;28;20029;-74
2022/07/17 08:31:11;;;;;;;6.93;1.98;;;22.00;96.70;;;;;;5090821;28;20385;-74
2022/07/17 08:33:38;;;;;;;6.90;1.80;;;22.10;97.80;;;;;;5089696;27;20020;-74
2022/07/17 08:36:04;;;;;;;7.25;1.98;;;22.30;96.70;;;;;;5086358;28;20024;-75
2022/07/17 08:38:29;;;;;;;4.32;1.73;;;22.40;96.10;;;;;;5088263;28;20031;-71
2022/07/17 08:40:55;;;;;;;3.63;1.50;;;22.50;96.40;;;;;;5085779;28;20021;-75
2022/07/17 08:43:21;;;;;;;4.22;1.60;;;22.60;95.00;;;;;;5090062;28;20025;-74
2022/07/17 08:45:48;;;;;;;5.15;1.55;;;22.70;96.00;;;;;;5084821;28;20024;-74
2022/07/17 08:48:15;;;;;;;6.78;1.50;;;22.50;94.10;;;;;;5085253;28;20028;-73
2022/07/17 08:50:41;;;;;;;3.22;1.50;;;22.60;94.90;;;;;;5081919;28;20376;-74
2022/07/17 08:53:07;;;;;;;4.82;1.73;;;22.80;95.40;;;;;;5087980;28;20028;-73
2022/07/17 08:55:34;;;;;;;8.02;1.88;;;22.90;93.60;;;;;;5081717;28;20028;-72
2022/07/17 08:58:00;;;;;;;4.97;1.50;;;23.00;93.50;;;;;;5082836;28;20048;-74
2022/07/17 09:00:27;;;;;;;3.60;1.42;;;23.20;93.40;;;;;;5084509;28;20074;-73
2022/07/17 09:03:04;;;;;;;6.88;1.75;;;23.20;93.10;;;;;;5082310;28;20366;-74
2022/07/17 09:05:37;;;;;;;4.10;1.40;;;23.40;93.60;;;;;;5088957;28;20030;-74
2022/07/17 09:08:04;;;;;;;5.22;1.50;;;23.60;93.70;;;;;;5077283;28;20021;-74
2022/07/17 09:10:45;;;;;;;5.25;2.42;;;23.60;93.20;;;;;;5082417;28;20086;-73
2022/07/17 09:13:15;;;;;;;5.10;1.88;;;23.80;93.00;;;;;;5079791;28;20024;-72
2022/07/17 09:15:41;;;;;;;6.25;1.40;;;23.60;94.00;;;;;;5092567;28;20027;-73
2022/07/17 09:18:07;;;;;;;3.67;1.85;;;23.80;94.00;;;;;;5081347;28;20020;-73
2022/07/17 09:20:32;;;;;;;7.85;2.00;;;24.00;93.00;;;;;;5087769;28;20027;-73
2022/07/17 09:23:01;;;;;;;5.47;2.25;;;23.80;93.10;;;;;;5082879;28;20024;-73
2022/07/17 09:25:34;;;;;;;5.55;1.75;;;23.70;92.90;;;;;;5084735;28;20499;-73
2022/07/17 09:28:03;;;;;;;3.92;1.73;;;23.90;93.60;;;;;;5080476;28;20029;-74
2022/07/17 09:30:29;;;;;;;4.57;1.80;;;24.20;92.60;;;;;;5085797;28;20444;-73
2022/07/17 09:32:55;;;;;;;2.85;1.70;;;24.30;91.80;;;;;;5084797;28;20024;-72
2022/07/17 09:35:22;;;;;;;6.45;1.70;;;24.40;92.20;;;;;;5081777;28;20532;-71
2022/07/17 09:37:47;;;;;;;3.08;1.35;;;24.40;91.50;;;;;;5108107;27;20357;-73
2022/07/17 09:43:12;;;;;;;4.53;1.33;;;24.80;91.10;;;;;;5046884;28;20040;-71
2022/07/17 09:45:39;;;;;;;6.25;1.30;;;24.80;89.60;;;;;;5079806;28;20025;-71
2022/07/17 09:48:05;;;;;;;5.32;1.10;;;24.90;88.40;;;;;;5084796;28;20496;-72
2022/07/17 09:50:33;;;;;;;3.97;1.10;;;25.00;87.40;;;;;;5094204;28;20043;-73
2022/07/17 09:53:00;;;;;;;3.63;1.42;;;25.00;85.00;;;;;;5080289;28;20044;-73
2022/07/17 09:55:31;;;;;;;3.63;0.93;;;25.00;87.70;;;;;;5082147;28;20034;-72
2022/07/17 09:57:59;;;;;;;3.72;1.33;;;25.00;87.60;;;;;;5083919;28;20063;-72
2022/07/17 10:00:25;;;;;;;4.25;1.45;;;25.10;88.90;;;;;;5085811;28;20051;-73
2022/07/17 10:02:52;;;;;;;4.38;1.52;;;25.20;89.30;;;;;;5078562;28;20538;-73
2022/07/17 10:05:18;;;;;;;4.95;1.50;;;25.20;89.10;;;;;;5080027;28;20016;-73
2022/07/17 10:07:45;;;;;;;4.38;1.23;;;25.30;90.00;;;;;;5089477;28;20568;-72
2022/07/17 10:10:12;;;;;;;3.15;1.30;;;25.50;89.10;;;;;;5084243;28;20020;-72
2022/07/17 10:12:39;;;;;;;3.13;1.35;;;25.60;87.30;;;;;;5085567;27;20028;-73
2022/07/17 10:15:07;;;;;;;3.83;1.30;;;25.70;88.80;;;;;;5078607;28;20012;-73
2022/07/17 10:17:33;;;;;;;4.93;1.40;;;25.80;89.30;;;;;;5084564;28;20027;-73
2022/07/17 10:19:59;;;;;;;2.17;1.67;;;25.90;88.30;;;;;;5084550;28;20024;-72
2022/07/17 10:22:25;;;;;;;5.63;1.70;;;25.90;86.50;;;;;;5084389;28;20036;-74
2022/07/17 10:24:56;;;;;;;4.03;1.50;;;25.90;86.80;;;;;;5074845;28;20028;-72
2022/07/17 10:27:24;;;;;;;5.25;1.63;;;25.90;86.50;;;;;;5087114;28;20020;-73
2022/07/17 10:30:04;;;;;;;1.83;1.38;;;26.00;87.40;;;;;;5083714;28;20020;-73
2022/07/17 10:32:31;;;;;;;2.40;1.17;;;25.90;87.40;;;;;;5083632;28;20020;-73
2022/07/17 10:35:03;;;;;;;4.00;1.25;;;26.10;88.90;;;;;;5080148;28;20024;-73
2022/07/17 10:37:46;;;;;;;5.57;1.42;;;26.30;89.70;;;;;;5089707;28;20453;-73
2022/07/17 10:40:25;;;;;;;5.18;1.15;;;26.40;85.20;;;;;;5089131;28;20038;-73
2022/07/17 10:43:01;;;;;;;2.20;1.60;;;26.40;84.90;;;;;;5079519;28;20485;-73
2022/07/17 10:45:32;;;;;;;3.80;1.60;;;26.50;86.00;;;;;;5080428;28;20020;-73
2022/07/17 10:48:02;;;;;;;3.00;1.60;;;26.20;83.40;;;;;;5086938;28;20370;-72
2022/07/17 10:50:30;;;;;;;4.15;1.50;;;26.10;86.10;;;;;;5086312;28;20046;-73
2022/07/17 10:53:03;;;;;;;3.30;1.15;;;26.10;85.90;;;;;;5079667;28;20477;-73
2022/07/17 10:55:30;;;;;;;3.83;1.58;;;26.20;85.10;;;;;;5084427;28;20032;-73
2022/07/17 10:57:56;;;;;;;2.25;1.25;;;26.30;84.30;;;;;;5086856;28;20024;-72
2022/07/17 11:00:22;;;;;;;2.67;1.42;;;26.60;83.20;;;;;;5086637;28;20043;-73
2022/07/17 11:02:48;;;;;;;3.22;1.48;;;26.80;85.50;;;;;;5088199;28;20028;-73
2022/07/17 11:05:16;;;;;;;3.88;1.25;;;26.90;86.50;;;;;;5085994;28;20017;-73
2022/07/17 11:07:54;;;;;;;3.33;1.40;;;27.10;87.00;;;;;;5088579;28;20073;-73
2022/07/17 11:10:21;;;;;;;3.15;1.30;;;27.10;85.40;;;;;;5086990;28;20055;-72
2022/07/17 11:12:47;;;;;;;4.30;1.60;;;27.00;84.20;;;;;;5089511;28;20112;-73
2022/07/17 11:15:13;;;;;;;3.25;1.27;;;26.70;85.40;;;;;;5083775;28;20143;-72
2022/07/17 11:17:45;;;;;;;6.80;2.00;;;27.00;88.30;;;;;;5089478;28;20078;-73
2022/07/17 11:20:10;;;;;;;3.53;1.80;;;27.10;85.90;;;;;;5088270;28;20032;-72
2022/07/17 11:22:36;;;;;;;4.43;1.60;;;27.40;86.50;;;;;;5091975;28;20035;-72
2022/07/17 11:25:04;;;;;;;4.43;1.40;;;27.30;82.70;;;;;;5084804;28;20029;-72
2022/07/17 11:27:30;;;;;;;3.88;1.67;;;27.50;85.20;;;;;;5083588;28;20028;-72
2022/07/17 11:30:00;;;;;;;2.25;1.40;;;27.60;83.60;;;;;;5088951;28;20096;-72
2022/07/17 11:32:34;;;;;;;3.63;2.10;;;27.60;84.00;;;;;;5092323;28;20013;-72
2022/07/17 11:35:00;;;;;;;3.90;1.33;;;27.70;81.10;;;;;;5090293;28;20031;-72
2022/07/17 11:37:30;;;;;;;2.70;1.38;;;27.70;81.70;;;;;;5088538;28;20016;-72
2022/07/17 11:39:57;;;;;;;4.57;1.60;;;27.60;79.50;;;;;;5085828;28;20055;-72
2022/07/17 11:42:23;;;;;;;3.85;1.52;;;27.70;81.40;;;;;;5080649;28;20024;-72
2022/07/17 11:44:56;;;;;;;4.93;1.50;;;27.60;81.70;;;;;;5088795;28;20028;-72
2022/07/17 11:47:24;;;;;;;2.17;1.40;;;27.60;81.30;;;;;;5090357;28;20531;-72
2022/07/17 11:49:50;;;;;;;8.18;2.00;;;27.80;78.00;;;;;;5089860;28;20050;-72
2022/07/17 11:52:20;;;;;;;6.82;1.40;;;28.00;78.70;;;;;;5084135;28;20056;-72
2022/07/17 11:54:54;;;;;;;4.32;1.20;;;28.10;76.50;;;;;;5080550;28;20024;-72
2022/07/17 11:57:23;;;;;;;2.35;1.15;;;28.00;80.00;;;;;;5084934;28;20497;-72
2022/07/17 11:59:51;;;;;;;3.53;1.55;;;28.00;82.10;;;;;;5087890;28;20028;-72
2022/07/17 12:02:20;;;;;;;5.55;1.50;;;28.00;78.80;;;;;;5080651;28;20060;-72
2022/07/17 12:04:56;;;;;;;2.45;1.52;;;28.30;81.30;;;;;;5087134;28;20020;-72
2022/07/17 12:07:23;;;;;;;5.57;1.33;;;28.30;78.10;;;;;;5090958;28;20032;-72
2022/07/17 12:09:49;;;;;;;2.90;1.48;;;28.20;78.30;;;;;;5087141;28;20480;-73
2022/07/17 12:12:22;;;;;;;2.50;1.40;;;28.20;75.30;;;;;;5083523;28;20039;-72
2022/07/17 12:14:58;;;;;;;4.25;1.65;;;28.40;76.60;;;;;;5091550;28;20028;-72
2022/07/17 12:17:36;;;;;;;4.05;1.45;;;28.50;75.20;;;;;;5083664;28;20016;-72
2022/07/17 12:20:07;;;;;;;2.08;1.38;;;28.60;73.70;;;;;;5079450;28;20024;-72
2022/07/17 12:22:47;;;;;;;2.63;1.25;;;28.50;75.00;;;;;;5083819;28;20065;-73
2022/07/17 12:25:26;;;;;;;1.77;1.40;;;28.60;72.30;;;;;;5087235;28;20084;-72
2022/07/17 12:27:52;;;;;;;3.25;1.38;;;28.70;74.10;;;;;;5085468;28;20377;-72
2022/07/17 12:30:19;;;;;;;2.33;1.35;;;28.90;72.90;;;;;;5090078;28;20027;-72
2022/07/17 12:32:47;;;;;;;3.03;1.10;;;28.80;72.80;;;;;;5087870;28;20035;-72
2022/07/17 12:35:13;;;;;;;3.55;1.13;;;29.00;72.80;;;;;;5081075;28;20028;-72
2022/07/17 12:37:38;;;;;;;1.75;1.13;;;29.00;75.00;;;;;;5086296;28;20367;-73
2022/07/17 12:40:05;;;;;;;2.38;1.25;;;29.00;70.00;;;;;;5086189;28;20077;-73
2022/07/17 12:42:31;;;;;;;1.95;1.10;;;29.00;67.90;;;;;;5083568;28;20419;-73
2022/07/17 12:44:56;;;;;;;2.20;1.30;;;28.90;67.90;;;;;;5087438;28;20031;-73